createdAt,value
2019-01-05T00:00:14.379Z,85.30
2019-01-05T00:03:10.464Z,86.30
2019-01-05T00:05:53.150Z,84.40
2019-01-05T00:08:33.084Z,84.50
2019-01-05T00:11:20.124Z,83.60
2019-01-05T00:14:06.947Z,84.10
2019-01-05T00:16:53.903Z,82.80
2019-01-05T00:19:43.874Z,82.60
2019-01-05T00:22:40.157Z,82.20
2019-01-05T00:25:25.735Z,83.50
2019-01-05T00:28:15.788Z,83.00
2019-01-05T00:31:06.067Z,82.60
2019-01-05T00:33:57.301Z,81.80
2019-01-05T00:36:54.442Z,79.70
2019-01-05T00:39:54.445Z,79.70
2019-01-05T00:42:40.479Z,78.30
2019-01-05T00:45:43.013Z,77.00
2019-01-05T00:48:29.074Z,76.60
2019-01-05T00:51:16.770Z,76.60
2019-01-05T00:54:16.806Z,78.10
2019-01-05T00:57:13.186Z,78.00
2019-01-05T00:59:57.874Z,79.00
2019-01-05T01:02:57.009Z,79.50
2019-01-05T01:05:51.579Z,80.40
2019-01-05T01:08:44.086Z,80.30
2019-01-05T01:11:29.963Z,81.00
2019-01-05T01:14:19.737Z,81.00
2019-01-05T01:17:05.202Z,80.70
2019-01-05T01:19:52.338Z,80.70
2019-01-05T01:22:49.200Z,79.90
2019-01-05T01:25:39.393Z,80.70
2019-01-05T01:28:35.294Z,79.90
2019-01-05T01:31:20.113Z,78.50
2019-01-05T01:34:19.396Z,78.50
2019-01-05T01:37:04.942Z,79.10
2019-01-05T01:39:57.474Z,79.40
2019-01-05T01:42:56.276Z,78.60
2019-01-05T01:45:42.037Z,78.30
2019-01-05T01:48:32.856Z,77.50
2019-01-05T01:51:18.892Z,77.00
2019-01-05T01:54:13.237Z,76.40
2019-01-05T01:56:56.030Z,76.20
2019-01-05T02:00:02.101Z,77.20
2019-01-05T02:02:47.700Z,76.00
2019-01-05T02:05:34.408Z,75.90
2019-01-05T02:08:40.674Z,74.80
2019-01-05T02:11:37.907Z,75.70
2019-01-05T02:14:36.805Z,76.00
2019-01-05T02:17:40.786Z,75.70
2019-01-05T02:20:47.279Z,75.60
2019-01-05T02:24:17.480Z,76.10
2019-01-05T02:27:28.563Z,76.60
2019-01-05T02:31:06.051Z,75.90
2019-01-05T02:34:51.661Z,75.60
2019-01-05T02:38:29.292Z,76.60
2019-01-05T02:41:52.892Z,75.40
2019-01-05T02:45:21.764Z,74.30
2019-01-05T02:49:04.267Z,74.30
2019-01-05T02:52:21.715Z,74.20
2019-01-05T02:55:41.306Z,74.20
2019-01-05T02:59:07.344Z,75.50
2019-01-05T03:02:25.402Z,74.20
2019-01-05T03:05:52.647Z,72.90
2019-01-05T03:09:18.603Z,73.30
2019-01-05T03:12:53.766Z,74.10
2019-01-05T03:16:40.040Z,73.30
2019-01-05T03:19:51.087Z,74.30
2019-01-05T03:23:15.892Z,74.70
2019-01-05T03:26:34.291Z,75.10
2019-01-05T03:30:03.344Z,73.60
2019-01-05T03:33:55.749Z,73.10
2019-01-05T03:37:36.314Z,73.30
2019-01-05T03:41:02.495Z,74.90
2019-01-05T03:44:56.372Z,76.30
2019-01-05T03:48:31.417Z,76.30
2019-01-05T03:52:02.906Z,76.70
2019-01-05T03:55:25.240Z,77.20
2019-01-05T03:59:01.932Z,76.80
2019-01-05T04:02:44.356Z,76.50
2019-01-05T04:06:15.312Z,74.80
2019-01-05T04:09:20.358Z,74.00
2019-01-05T04:12:59.116Z,74.50
2019-01-05T04:16:08.253Z,74.70
2019-01-05T04:19:31.598Z,76.20
2019-01-05T04:23:10.718Z,76.00
2019-01-05T04:26:31.939Z,76.00
2019-01-05T04:29:48.125Z,76.30
2019-01-05T04:33:16.980Z,76.30
2019-01-05T04:36:31.661Z,75.50
2019-01-05T04:40:11.895Z,77.00
2019-01-05T04:43:31.556Z,76.70
2019-01-05T04:47:07.223Z,77.60
2019-01-05T04:50:38.563Z,77.80
2019-01-05T04:53:47.594Z,77.40
2019-01-05T04:57:17.877Z,77.70
2019-01-05T05:00:34.931Z,77.10
2019-01-05T05:04:21.342Z,77.10
2019-01-05T05:07:32.960Z,77.30
2019-01-05T05:10:59.351Z,76.50
2019-01-05T05:14:33.078Z,76.50
2019-01-05T05:18:02.263Z,77.30
2019-01-05T05:21:28.429Z,77.60
2019-01-05T05:25:21.570Z,74.90
2019-01-05T05:29:09.333Z,74.60
2019-01-05T05:32:35.789Z,75.20
2019-01-05T05:35:51.533Z,77.10
2019-01-05T05:39:10.871Z,78.20
2019-01-05T05:42:38.135Z,78.40
2019-01-05T05:46:11.599Z,77.00
2019-01-05T05:49:40.087Z,77.00
2019-01-05T05:53:09.881Z,76.00
2019-01-05T05:56:29.119Z,76.40
2019-01-05T06:00:15.725Z,75.30
2019-01-05T06:03:36.275Z,76.10
2019-01-05T06:07:05.633Z,76.90
2019-01-05T06:10:29.353Z,78.20
2019-01-05T06:13:58.393Z,78.30
2019-01-05T06:17:35.858Z,79.10
2019-01-05T06:21:08.285Z,79.20
2019-01-05T06:24:24.914Z,79.00
2019-01-05T06:27:41.359Z,79.60
2019-01-05T06:30:57.662Z,78.60
2019-01-05T06:34:05.467Z,78.40
2019-01-05T06:37:36.468Z,79.10
2019-01-05T06:40:51.165Z,80.50
2019-01-05T06:44:05.744Z,80.50
2019-01-05T06:47:20.601Z,81.20
2019-01-05T06:50:49.302Z,82.10
2019-01-05T06:54:30.238Z,82.00
2019-01-05T06:57:53.449Z,81.80
2019-01-05T07:01:20.179Z,82.80
2019-01-05T07:04:42.366Z,82.80
2019-01-05T07:08:09.988Z,83.30
2019-01-05T07:11:48.895Z,83.40
2019-01-05T07:15:10.705Z,84.50
2019-01-05T07:18:32.097Z,84.80
2019-01-05T07:22:27.209Z,83.70
2019-01-05T07:25:51.383Z,82.60
2019-01-05T07:29:12.899Z,83.00
2019-01-05T07:32:45.138Z,82.30
2019-01-05T07:36:07.062Z,84.10
2019-01-05T07:39:44.920Z,84.30
2019-01-05T07:43:28.407Z,86.80
2019-01-05T07:47:08.752Z,85.60
2019-01-05T07:51:22.990Z,85.70
2019-01-05T07:54:49.413Z,87.80
2019-01-05T07:58:25.182Z,88.50
2019-01-05T08:01:55.603Z,87.30
2019-01-05T08:05:24.291Z,86.20
2019-01-05T08:09:21.220Z,88.00
2019-01-05T08:12:47.817Z,89.40
2019-01-05T08:16:23.018Z,88.80
2019-01-05T08:19:51.457Z,85.90
2019-01-05T08:23:34.698Z,90.80
2019-01-05T08:27:04.229Z,89.00
2019-01-05T08:30:23.014Z,88.60
2019-01-05T08:34:08.769Z,91.60
2019-01-05T08:37:47.409Z,93.80
2019-01-05T08:41:42.676Z,93.10
2019-01-05T08:45:04.506Z,90.10
2019-01-05T08:48:33.979Z,92.20
2019-01-05T08:52:18.709Z,91.30
2019-01-05T08:56:04.794Z,92.00
2019-01-05T08:59:35.639Z,93.90
2019-01-05T09:03:10.766Z,92.50
2019-01-05T09:06:44.138Z,95.70
2019-01-05T09:10:05.462Z,95.80
2019-01-05T09:13:34.844Z,95.60
2019-01-05T09:17:14.595Z,96.80
2019-01-05T09:20:57.924Z,96.00
2019-01-05T09:24:56.892Z,95.60
2019-01-05T09:28:20.435Z,94.70
2019-01-05T09:31:42.750Z,95.40
2019-01-05T09:35:16.671Z,97.30
2019-01-05T09:38:52.426Z,95.70
2019-01-05T09:42:01.393Z,96.50
2019-01-05T09:45:36.682Z,97.40
2019-01-05T09:49:11.112Z,97.40
2019-01-05T09:52:36.013Z,97.40
2019-01-05T09:55:52.106Z,97.40
2019-01-05T09:58:58.154Z,97.40
2019-01-05T10:02:22.892Z,97.40
2019-01-05T10:06:03.514Z,97.40
2019-01-05T10:09:41.759Z,96.00
2019-01-05T10:13:36.614Z,95.50
2019-01-05T10:16:55.261Z,93.80
2019-01-05T10:21:06.171Z,95.30
2019-01-05T10:24:46.456Z,95.50
2019-01-05T10:28:15.768Z,95.20
2019-01-05T10:31:55.823Z,96.40
2019-01-05T10:35:31.276Z,97.10
2019-01-05T10:39:14.005Z,96.30
2019-01-05T10:42:35.160Z,95.30
2019-01-05T10:46:06.511Z,95.60
2019-01-05T10:49:38.088Z,96.00
2019-01-05T10:52:46.954Z,96.40
2019-01-05T10:56:11.567Z,96.70
2019-01-05T10:59:43.929Z,97.20
2019-01-05T11:03:03.343Z,96.80
2019-01-05T11:06:25.489Z,97.00
2019-01-05T11:10:26.365Z,96.70
2019-01-05T11:14:15.231Z,95.30
2019-01-05T11:17:29.034Z,95.40
2019-01-05T11:21:02.896Z,95.80
2019-01-05T11:24:32.255Z,96.10
2019-01-05T11:27:56.739Z,96.00
2019-01-05T11:31:33.470Z,96.20
2019-01-05T11:35:10.831Z,94.80
2019-01-05T11:38:28.106Z,96.00
2019-01-05T11:41:31.016Z,94.60
2019-01-05T11:45:03.603Z,95.00
2019-01-05T11:48:37.287Z,95.00
2019-01-05T11:51:49.873Z,94.30
2019-01-05T11:55:08.521Z,93.10
2019-01-05T11:58:31.837Z,94.10
2019-01-05T12:02:00.899Z,95.00
2019-01-05T12:05:23.084Z,94.30
2019-01-05T12:08:58.511Z,93.20
2019-01-05T12:13:06.504Z,93.10
2019-01-05T12:16:42.104Z,94.70
2019-01-05T12:20:12.787Z,95.00
2019-01-05T12:24:10.371Z,95.20
2019-01-05T12:27:36.841Z,94.40
2019-01-05T12:31:31.143Z,96.00
2019-01-05T12:34:55.282Z,95.70
2019-01-05T12:38:36.736Z,94.10
2019-01-05T12:42:12.080Z,94.00
2019-01-05T12:45:39.213Z,93.90
2019-01-05T12:49:09.112Z,94.00
2019-01-05T12:52:42.989Z,96.10
2019-01-05T12:56:12.571Z,95.50
2019-01-05T12:59:28.261Z,94.40
2019-01-05T13:02:53.551Z,94.10
2019-01-05T13:06:16.011Z,93.60
2019-01-05T13:10:03.071Z,95.50
2019-01-05T13:13:18.206Z,94.40
2019-01-05T13:16:37.081Z,94.40
2019-01-05T13:20:36.225Z,94.70
2019-01-05T13:24:06.645Z,94.20
2019-01-05T13:27:41.920Z,94.90
2019-01-05T13:31:22.493Z,93.80
2019-01-05T13:34:52.056Z,93.10
2019-01-05T13:38:18.662Z,92.60
2019-01-05T13:41:48.894Z,95.50
2019-01-05T13:45:08.202Z,93.00
2019-01-05T13:48:31.849Z,93.20
2019-01-05T13:51:57.150Z,93.70
2019-01-05T13:54:49.839Z,94.60
2019-01-05T13:57:42.580Z,94.80
2019-01-05T14:00:25.088Z,93.90
2019-01-05T14:03:10.635Z,93.60
2019-01-05T14:05:56.406Z,93.30
2019-01-05T14:08:55.718Z,95.00
2019-01-05T14:11:41.177Z,92.40
2019-01-05T14:14:26.542Z,93.20
2019-01-05T14:17:22.145Z,92.90
2019-01-05T14:20:27.267Z,94.00
2019-01-05T14:23:17.826Z,92.80
2019-01-05T14:26:13.985Z,92.80
2019-01-05T14:29:16.113Z,92.70
2019-01-05T14:32:01.911Z,93.70
2019-01-05T14:35:07.227Z,93.00
2019-01-05T14:37:54.197Z,91.40
2019-01-05T14:40:50.234Z,92.60
2019-01-05T14:43:30.799Z,91.60
2019-01-05T14:46:18.051Z,92.40
2019-01-05T14:49:20.338Z,91.10
2019-01-05T14:52:05.814Z,92.00
2019-01-05T14:54:51.534Z,91.20
2019-01-05T14:57:53.793Z,90.00
2019-01-05T15:00:39.423Z,91.00
2019-01-05T15:03:26.345Z,92.80
2019-01-05T15:06:11.569Z,90.90
2019-01-05T15:09:11.263Z,91.60
2019-01-05T15:11:56.927Z,92.20
2019-01-05T15:14:42.194Z,93.50
2019-01-05T15:17:45.029Z,93.40
2019-01-05T15:20:50.056Z,91.10
2019-01-05T15:23:35.902Z,91.80
2019-01-05T15:26:21.107Z,90.90
2019-01-05T15:29:07.331Z,92.70
2019-01-05T15:31:53.324Z,90.80
2019-01-05T15:34:43.215Z,90.60
2019-01-05T15:37:33.105Z,93.10
2019-01-05T15:40:19.936Z,92.50
2019-01-05T15:43:09.891Z,91.90
2019-01-05T15:45:56.884Z,91.10
2019-01-05T15:48:48.668Z,89.90
2019-01-05T15:51:50.678Z,91.70
2019-01-05T15:54:36.362Z,90.80
2019-01-05T15:57:22.162Z,91.50
2019-01-05T16:00:09.106Z,92.40
2019-01-05T16:03:00.684Z,90.90
2019-01-05T16:05:56.839Z,90.50
2019-01-05T16:08:42.310Z,90.70
2019-01-05T16:11:29.527Z,92.40
2019-01-05T16:14:15.453Z,92.30
2019-01-05T16:17:20.531Z,90.70
2019-01-05T16:20:06.080Z,92.50
2019-01-05T16:22:52.205Z,91.50
2019-01-05T16:25:31.471Z,92.10
2019-01-05T16:28:24.603Z,91.80
2019-01-05T16:31:23.557Z,92.20
2019-01-05T16:34:19.437Z,92.50
2019-01-05T16:37:07.896Z,92.80
2019-01-05T16:40:06.945Z,92.80
2019-01-05T16:42:57.513Z,92.80
2019-01-05T16:45:55.885Z,93.10
2019-01-05T16:48:46.015Z,91.20
2019-01-05T16:51:33.410Z,91.30
2019-01-05T16:54:25.248Z,93.60
2019-01-05T16:57:17.377Z,93.20
2019-01-05T17:00:13.559Z,92.90
2019-01-05T17:03:00.279Z,94.10
2019-01-05T17:05:50.220Z,92.40
2019-01-05T17:08:35.713Z,90.60
2019-01-05T17:11:26.017Z,91.90
2019-01-05T17:14:11.573Z,92.70
2019-01-05T17:16:57.494Z,92.40
2019-01-05T17:19:39.186Z,93.70
2019-01-05T17:22:25.121Z,91.80
2019-01-05T17:25:09.910Z,91.90
2019-01-05T17:27:52.181Z,89.80
2019-01-05T17:30:42.213Z,91.70
2019-01-05T17:33:29.479Z,90.30
2019-01-05T17:36:08.058Z,89.60
2019-01-05T17:39:00.939Z,88.90
2019-01-05T17:41:46.527Z,89.50
2019-01-05T17:44:34.520Z,87.00
2019-01-05T17:47:21.532Z,89.40
2019-01-05T17:50:13.733Z,90.00
2019-01-05T17:53:03.761Z,88.80
2019-01-05T17:55:50.765Z,91.10
2019-01-05T17:58:55.453Z,88.60
2019-01-05T18:01:48.255Z,90.60
2019-01-05T18:04:33.821Z,90.90
2019-01-05T18:07:18.459Z,91.30
2019-01-05T18:10:11.736Z,92.10
2019-01-05T18:13:01.715Z,91.00
2019-01-05T18:15:47.324Z,90.50
2019-01-05T18:18:39.697Z,89.60
2019-01-05T18:21:21.700Z,90.60
2019-01-05T18:24:18.113Z,89.40
2019-01-05T18:27:16.850Z,89.50
2019-01-05T18:30:03.000Z,89.70
2019-01-05T18:33:01.793Z,90.20
2019-01-05T18:35:47.280Z,89.10
2019-01-05T18:38:40.327Z,89.80
2019-01-05T18:41:30.386Z,89.60
2019-01-05T18:44:15.755Z,90.10
2019-01-05T18:47:21.104Z,88.50
2019-01-05T18:50:06.744Z,90.40
2019-01-05T18:52:52.495Z,89.80
2019-01-05T18:55:37.297Z,89.80
2019-01-05T18:58:39.332Z,90.30
2019-01-05T19:01:26.322Z,88.80
2019-01-05T19:04:13.313Z,90.30
2019-01-05T19:07:03.583Z,89.20
2019-01-05T19:09:50.597Z,89.90
2019-01-05T19:12:37.568Z,89.10
2019-01-05T19:15:33.498Z,89.30
2019-01-05T19:18:29.742Z,90.00
2019-01-05T19:21:15.555Z,89.70
2019-01-05T19:24:01.248Z,89.10
2019-01-05T19:26:57.334Z,89.50
2019-01-05T19:29:50.658Z,88.80
2019-01-05T19:32:46.953Z,90.00
2019-01-05T19:35:32.888Z,89.20
2019-01-05T19:38:25.994Z,88.80
2019-01-05T19:41:14.957Z,90.00
2019-01-05T19:44:07.724Z,89.90
2019-01-05T19:47:00.527Z,90.00
2019-01-05T19:49:48.864Z,88.80
2019-01-05T19:52:34.721Z,89.50
2019-01-05T19:55:20.562Z,88.80
2019-01-05T19:58:22.864Z,90.00
2019-01-05T20:01:12.745Z,89.50
2019-01-05T20:04:02.499Z,90.20
2019-01-05T20:06:52.045Z,89.10
2019-01-05T20:09:48.574Z,89.10
2019-01-05T20:12:34.410Z,90.20
2019-01-05T20:15:22.500Z,89.80
2019-01-05T20:18:08.021Z,89.90
2019-01-05T20:21:07.161Z,90.00
2019-01-05T20:24:06.258Z,88.10
2019-01-05T20:26:52.163Z,87.20
2019-01-05T20:29:38.077Z,87.60
2019-01-05T20:32:28.180Z,89.20
2019-01-05T20:35:15.453Z,89.50
2019-01-05T20:38:01.107Z,88.30
2019-01-05T20:40:53.533Z,88.10
2019-01-05T20:43:40.560Z,88.70
2019-01-05T20:46:33.566Z,87.90
2019-01-05T20:49:15.248Z,86.70
2019-01-05T20:52:12.589Z,87.00
2019-01-05T20:55:00.478Z,87.70
2019-01-05T20:57:45.701Z,88.30
2019-01-05T21:00:50.963Z,86.50
2019-01-05T21:03:40.421Z,89.10
2019-01-05T21:06:27.332Z,88.90
2019-01-05T21:09:13.201Z,89.20
2019-01-05T21:12:12.578Z,88.00
2019-01-05T21:14:58.304Z,87.30
2019-01-05T21:17:44.085Z,87.90
2019-01-05T21:20:31.109Z,87.10
2019-01-05T21:23:23.979Z,87.30
2019-01-05T21:26:29.307Z,89.20
2019-01-05T21:29:21.947Z,87.70
2019-01-05T21:32:07.268Z,85.70
2019-01-05T21:34:53.314Z,87.00
2019-01-05T21:37:58.950Z,86.70
2019-01-05T21:41:03.461Z,89.40
2019-01-05T21:43:49.043Z,87.20
2019-01-05T21:46:34.343Z,88.90
2019-01-05T21:49:20.278Z,88.20
2019-01-05T21:52:05.612Z,91.50
2019-01-05T21:55:01.770Z,89.90
2019-01-05T21:58:00.972Z,90.90
2019-01-05T22:01:00.545Z,87.90
2019-01-05T22:03:46.378Z,90.20
2019-01-05T22:06:32.876Z,89.40
2019-01-05T22:09:32.135Z,88.30
2019-01-05T22:12:10.862Z,88.10
2019-01-05T22:14:54.457Z,89.40
2019-01-05T22:17:44.601Z,87.20
2019-01-05T22:20:37.863Z,87.80
2019-01-05T22:23:25.433Z,88.70
2019-01-05T22:26:15.873Z,88.50
2019-01-05T22:29:01.663Z,87.50
2019-01-05T22:31:48.070Z,87.80
2019-01-05T22:34:35.462Z,90.60
2019-01-05T22:37:34.107Z,88.80
2019-01-05T22:40:23.823Z,89.00
2019-01-05T22:43:27.623Z,91.20
2019-01-05T22:46:13.357Z,92.30
2019-01-05T22:49:00.439Z,90.80
2019-01-05T22:52:06.026Z,90.60
2019-01-05T22:54:43.729Z,90.80
2019-01-05T22:57:42.318Z,90.80
2019-01-05T23:00:51.486Z,91.60
2019-01-05T23:03:52.975Z,89.00
2019-01-05T23:06:45.940Z,90.70
2019-01-05T23:09:30.788Z,90.70
2019-01-05T23:12:09.548Z,88.20
2019-01-05T23:14:59.276Z,87.40
2019-01-05T23:17:46.249Z,89.10
2019-01-05T23:20:31.862Z,87.80
2019-01-05T23:23:17.646Z,89.30
2019-01-05T23:26:03.320Z,91.20
2019-01-05T23:28:49.242Z,87.50
2019-01-05T23:31:35.337Z,89.80
2019-01-05T23:34:20.822Z,86.60
2019-01-05T23:37:06.593Z,88.30
2019-01-05T23:39:59.528Z,89.10
2019-01-05T23:42:45.172Z,91.30
2019-01-05T23:45:38.906Z,89.30
2019-01-05T23:48:25.006Z,88.50
2019-01-05T23:51:11.154Z,89.60
2019-01-05T23:53:57.996Z,90.70
2019-01-05T23:56:47.783Z,91.80
2019-01-05T23:59:40.690Z,90.00
